x

West Sea Otter (46204) Wave Buoy

2:00pm - Thu 30th Mar 2017 All times are PDT. -7 hours from GMT.

  • Sig Wave height 6.9ft
  • Peak Period 9s
  • Wind
    4mph, 9mph gusts
  • Sea Temp 47°f
  • 空気 Temp 47°f
  • Sea Pressure 1025.4mb
  • West Sea Otter
  • West Sea Otter

More Historic Weather Station data

Upgrade to MSW Pro to gain access to the past 30 days of data for over 8000 Wavebouys and Weather Stations around the globe.

Join Pro

Comparision Forecast

View Surf forecast
   
Thu 03/30 2:00pm 7ft 9s 4 9 mph 1025.4mb 47f 47f
1:00pm 7ft 11s 4 7 mph 1025mb 47f 46f
12:00pm 7ft 13s 4 7 mph 1024.8mb 47f 46f
11:00am 7ft 10s 2 4 mph 1024.6mb 47f 46f
10:00am 7ft 11s 2 4 mph 1023.9mb 46f 45f
9:00am 7ft 14s 4 7 mph 1023.7mb 46f 45f
8:00am 7ft 14s 9
mph
1023.1mb 46f 44f
7:00am 7ft 14s 7 9 mph 1022.3mb 46f 44f
6:00am 7ft 11s 13 16 mph 1021.3mb 46f 45f
5:00am 7ft 12s 13 18 mph 1020.2mb 46f 46f
4:00am 7ft 12s 13 18 mph 1019.6mb 46f 46f
3:00am 7.5ft 14s 13 18 mph 1019mb 46f 46f
2:00am 7ft 12s 16 18 mph 1018.4mb 46f 46f
1:00am 8ft 14s 18 22 mph 1017.8mb 46f 46f
12:00am 8ft 12s 16 20 mph 1016.8mb 46f 46f
Wed 03/29 11:00pm 8ft 12s 16 18 mph 1016.1mb 46f 46f
10:00pm 8.5ft 14s 16 20 mph 1015.5mb 47f 46f
9:00pm 8ft 12s 13 18 mph 1014.5mb 47f 45f
8:00pm 8ft 12s 16 18 mph 1013.6mb 47f 46f
7:00pm 8ft 14s 13 18 mph 1012.8mb 46f 46f
6:00pm 7.5ft 14s 16 20 mph 1011.9mb 46f 46f
5:00pm 8ft 14s 18 22 mph 1011mb 46f 46f
4:00pm 7.5ft 15s 20 22 mph 1010.1mb 46f 46f
3:00pm 8ft 14s 16 18 mph 1009.6mb 46f 45f
2:00pm 9ft 11s 13 18 mph 1008.9mb 46f 45f
1:00pm 8ft 15s 18 20 mph 1008.5mb 46f 44f
12:00pm 9ft 13s 4 7 mph 1008.2mb 46f 44f
11:00am 9ft 15s 4 7 mph 1008.1mb 46f 44f
10:00am 9.5ft 14s 4 9 mph 1008.2mb 46f 44f
9:00am 8.5ft 14s 7 9 mph 1008.5mb 46f 44f
8:00am 9ft 14s 7 9 mph 1008.6mb 46f 44f
7:00am 10ft 15s 7 9 mph 1008.9mb 46f 44f
6:00am 9ft 15s 7 9 mph 1009.1mb 46f 44f
5:00am 9ft 15s 7 9 mph 1009.5mb 46f 44f
4:00am 10ft 14s 9 13 mph 1010.2mb 46f 45f
3:00am 10ft 16s 11 13 mph 1011.1mb 46f 45f
2:00am 9.5ft 10s 11 13 mph 1012mb 46f 46f
1:00am 10.5ft 15s 13 16 mph 1012.7mb 46f 45f
12:00am 10.5ft 15s 13 16 mph 1013.5mb 46f 45f
Tue 03/28 11:00pm 10ft 16s 11 16 mph 1014.2mb 46f 46f
10:00pm 11ft 11s 16 18 mph 1014.5mb 46f 46f
9:00pm 11ft 11s 13 18 mph 1014.8mb 46f 46f
8:00pm 11ft 11s 13 18 mph 1014.8mb 46f 44f
7:00pm 10.5ft 10s 4 7 mph 1015.2mb 46f 46f
6:00pm 10.5ft 11s 7 11 mph 1014.9mb 46f 46f
5:00pm 11ft 16s 7 11 mph 1014.6mb 46f 46f
4:00pm 11ft 14s 11 16 mph 1014.2mb 46f 46f
3:00pm 11ft 11s 16 20 mph 1013.6mb 46f 46f
2:00pm 11.5ft 15s 11 16 mph 1013mb 46f 45f
1:00pm 12ft 11s 20 25 mph 1012.6mb 46f 45f
12:00pm 12ft 15s 20 25 mph 1012.1mb 46f 45f
11:00am 12.5ft 10s 20 27 mph 1011mb 46f 45f
10:00am 12.5ft 15s 18 22 mph 1010.1mb 46f 45f
9:00am 12ft 15s 22 27 mph 1009.4mb 46f 46f
8:00am 12ft 11s 22 27 mph 1008.4mb 46f 46f
7:00am 12ft 17s 22 29 mph 1007.7mb 46f 46f
6:00am 12ft 17s 22 29 mph 1006.9mb 46f 46f
5:00am 11.5ft 16s 22 29 mph 1006.4mb 46f 47f
4:00am 12ft 7s 22 27 mph 1005.9mb 46f 47f
3:00am 12ft 18s 29 38 mph 1005.8mb 46f 45f
2:00am 12ft 12s 27 34 mph 1006.3mb 46f 45f
1:00am 12.5ft 11s 31 38 mph 1006.7mb 46f 45f
12:00am 13ft 12s 34 43 mph 1006.6mb 46f 45f
Mon 03/27 11:00pm 12ft 9s 34 43 mph 1007.4mb 46f 44f
10:00pm 12ft 11s 31 40 mph 1008.4mb 46f 44f
9:00pm 13ft 11s 29 36 mph 1009.2mb 46f 44f
8:00pm 11.5ft 12s 31 38 mph 1009.8mb 46f 44f
7:00pm 11.5ft 12s 34 40 mph 1009.9mb 46f 44f
6:00pm 10ft 11s 29 36 mph 1010.7mb 46f 45f
5:00pm 10ft 12s 25 31 mph 1011.2mb 46f 45f
4:00pm 9ft 17s 22 29 mph 1011.3mb 46f 45f
3:00pm 8.5ft 12s 20 25 mph 1011.2mb 46f 45f
2:00pm 10ft 11s 22 29 mph 1010.7mb 46f 45f
1:00pm 9.5ft 12s 20 27 mph 1010.3mb 46f 45f
12:00pm 10ft 12s 25 29 mph 1009.4mb 46f 46f
11:00am 9ft 12s 27 31 mph 1008.6mb 46f 45f
10:00am 7.5ft 9s 22 29 mph 1008.3mb 46f 46f
9:00am 7.5ft 8s 20 25 mph 1008mb 46f 46f
8:00am 7.5ft 8s 18 20 mph 1008mb 46f 46f
7:00am 7ft 8s 18 22 mph 1007.7mb 46f 46f
6:00am 6ft 8s 13 16 mph 1007mb 46f 46f
5:00am 7ft 9s 20 22 mph 1006.5mb 46f 46f
4:00am 6ft 9s 20 22 mph 1005.6mb 46f 46f
3:00am 6ft 8s 22 27 mph 1005.2mb 46f 46f
2:00am 6ft 9s 22 27 mph 1004.6mb 46f 46f
1:00am 6ft 10s 25 27 mph 1003.8mb 46f 46f
12:00am 6ft 9s 22 27 mph 1003.1mb 46f 46f
Sun 03/26 11:00pm 7ft 10s 25 31 mph 1002.8mb 46f 46f